sensor_id;sensor_type;location;lat;lon;timestamp;temperature;humidity
4960;DHT22;2495;48.200;11.532;2023-04-08T00:04:08;9.70;67.20
4960;DHT22;2495;48.200;11.532;2023-04-08T00:09:09;9.50;67.20
4960;DHT22;2495;48.200;11.532;2023-04-08T00:14:11;9.40;67.40
4960;DHT22;2495;48.200;11.532;2023-04-08T00:19:12;9.20;67.80
4960;DHT22;2495;48.200;11.532;2023-04-08T00:24:14;9.20;67.90
4960;DHT22;2495;48.200;11.532;2023-04-08T00:29:15;9.10;67.90
4960;DHT22;2495;48.200;11.532;2023-04-08T00:34:16;9.00;68.10
4960;DHT22;2495;48.200;11.532;2023-04-08T00:39:18;8.90;69.30
4960;DHT22;2495;48.200;11.532;2023-04-08T00:44:19;9.00;69.70
4960;DHT22;2495;48.200;11.532;2023-04-08T00:49:21;8.90;71.50
4960;DHT22;2495;48.200;11.532;2023-04-08T00:54:23;8.80;71.60
4960;DHT22;2495;48.200;11.532;2023-04-08T00:59:25;8.70;71.90
4960;DHT22;2495;48.200;11.532;2023-04-08T01:09:51;8.60;72.90
4960;DHT22;2495;48.200;11.532;2023-04-08T01:14:50;8.50;73.60
4960;DHT22;2495;48.200;11.532;2023-04-08T01:19:52;8.50;73.40
4960;DHT22;2495;48.200;11.532;2023-04-08T01:25:01;8.40;75.70
4960;DHT22;2495;48.200;11.532;2023-04-08T01:30:02;8.40;75.70
4960;DHT22;2495;48.200;11.532;2023-04-08T01:35:03;8.30;75.80
4960;DHT22;2495;48.200;11.532;2023-04-08T01:40:07;8.30;76.80
4960;DHT22;2495;48.200;11.532;2023-04-08T01:45:09;8.20;77.10
4960;DHT22;2495;48.200;11.532;2023-04-08T01:50:10;8.40;78.00
4960;DHT22;2495;48.200;11.532;2023-04-08T01:55:12;8.80;77.30
4960;DHT22;2495;48.200;11.532;2023-04-08T02:00:13;8.80;76.40
4960;DHT22;2495;48.200;11.532;2023-04-08T02:05:15;8.40;78.30
4960;DHT22;2495;48.200;11.532;2023-04-08T02:10:17;8.40;77.20
4960;DHT22;2495;48.200;11.532;2023-04-08T02:15:18;8.30;77.20
4960;DHT22;2495;48.200;11.532;2023-04-08T02:20:24;8.20;77.10
4960;DHT22;2495;48.200;11.532;2023-04-08T02:25:27;8.20;77.70
4960;DHT22;2495;48.200;11.532;2023-04-08T02:30:28;8.10;77.40
4960;DHT22;2495;48.200;11.532;2023-04-08T02:35:30;8.10;77.70
4960;DHT22;2495;48.200;11.532;2023-04-08T02:40:32;8.00;77.90
4960;DHT22;2495;48.200;11.532;2023-04-08T02:45:40;8.00;78.00
4960;DHT22;2495;48.200;11.532;2023-04-08T02:50:43;8.00;78.80
4960;DHT22;2495;48.200;11.532;2023-04-08T02:55:45;7.90;79.80
4960;DHT22;2495;48.200;11.532;2023-04-08T03:00:46;7.80;79.50
4960;DHT22;2495;48.200;11.532;2023-04-08T03:05:48;7.70;81.80
4960;DHT22;2495;48.200;11.532;2023-04-08T03:10:50;7.70;80.80
4960;DHT22;2495;48.200;11.532;2023-04-08T03:15:51;7.80;80.90
4960;DHT22;2495;48.200;11.532;2023-04-08T03:20:52;7.90;80.00
4960;DHT22;2495;48.200;11.532;2023-04-08T03:25:54;7.90;80.00
4960;DHT22;2495;48.200;11.532;2023-04-08T03:30:55;8.00;80.30
4960;DHT22;2495;48.200;11.532;2023-04-08T03:35:57;8.10;80.40
4960;DHT22;2495;48.200;11.532;2023-04-08T03:40:58;8.20;80.10
4960;DHT22;2495;48.200;11.532;2023-04-08T03:46:00;8.20;80.30
4960;DHT22;2495;48.200;11.532;2023-04-08T03:51:01;8.20;79.90
4960;DHT22;2495;48.200;11.532;2023-04-08T03:56:03;8.20;79.70
4960;DHT22;2495;48.200;11.532;2023-04-08T04:01:05;8.30;80.50
4960;DHT22;2495;48.200;11.532;2023-04-08T04:06:06;8.20;80.00
4960;DHT22;2495;48.200;11.532;2023-04-08T04:11:07;8.20;79.80
4960;DHT22;2495;48.200;11.532;2023-04-08T04:16:09;8.20;80.10
4960;DHT22;2495;48.200;11.532;2023-04-08T04:21:10;8.20;80.20
4960;DHT22;2495;48.200;11.532;2023-04-08T04:26:12;8.20;80.20
4960;DHT22;2495;48.200;11.532;2023-04-08T04:31:23;8.20;80.90
4960;DHT22;2495;48.200;11.532;2023-04-08T04:36:23;8.20;81.70
4960;DHT22;2495;48.200;11.532;2023-04-08T04:41:25;8.20;81.10
4960;DHT22;2495;48.200;11.532;2023-04-08T04:46:27;8.30;81.10
4960;DHT22;2495;48.200;11.532;2023-04-08T04:51:32;8.40;82.00
4960;DHT22;2495;48.200;11.532;2023-04-08T04:56:33;8.40;81.60
4960;DHT22;2495;48.200;11.532;2023-04-08T05:01:34;8.40;80.50
4960;DHT22;2495;48.200;11.532;2023-04-08T05:06:36;8.40;80.60
4960;DHT22;2495;48.200;11.532;2023-04-08T05:11:37;8.40;80.90
4960;DHT22;2495;48.200;11.532;2023-04-08T05:16:39;8.50;80.50
4960;DHT22;2495;48.200;11.532;2023-04-08T05:21:40;8.50;80.80
4960;DHT22;2495;48.200;11.532;2023-04-08T05:26:42;8.60;81.20
4960;DHT22;2495;48.200;11.532;2023-04-08T05:31:43;8.70;80.90
4960;DHT22;2495;48.200;11.532;2023-04-08T05:36:44;8.80;80.90
4960;DHT22;2495;48.200;11.532;2023-04-08T05:41:46;9.00;81.50
4960;DHT22;2495;48.200;11.532;2023-04-08T05:46:47;9.10;81.70
4960;DHT22;2495;48.200;11.532;2023-04-08T05:51:48;9.40;82.60
4960;DHT22;2495;48.200;11.532;2023-04-08T05:56:49;9.50;81.60
4960;DHT22;2495;48.200;11.532;2023-04-08T06:01:51;9.50;81.40
4960;DHT22;2495;48.200;11.532;2023-04-08T06:06:52;9.50;81.50
4960;DHT22;2495;48.200;11.532;2023-04-08T06:11:53;9.50;81.40
4960;DHT22;2495;48.200;11.532;2023-04-08T06:16:55;9.50;81.60
4960;DHT22;2495;48.200;11.532;2023-04-08T06:21:56;9.60;81.40
4960;DHT22;2495;48.200;11.532;2023-04-08T06:26:58;9.60;81.40
4960;DHT22;2495;48.200;11.532;2023-04-08T06:31:59;9.60;81.50
4960;DHT22;2495;48.200;11.532;2023-04-08T06:37:00;9.60;81.30
4960;DHT22;2495;48.200;11.532;2023-04-08T06:42:02;9.60;81.70
4960;DHT22;2495;48.200;11.532;2023-04-08T06:47:03;9.50;81.70
4960;DHT22;2495;48.200;11.532;2023-04-08T06:52:07;9.60;81.70
4960;DHT22;2495;48.200;11.532;2023-04-08T06:57:07;9.70;80.60
4960;DHT22;2495;48.200;11.532;2023-04-08T07:02:08;9.70;81.00
4960;DHT22;2495;48.200;11.532;2023-04-08T07:07:10;9.80;80.40
4960;DHT22;2495;48.200;11.532;2023-04-08T07:12:12;9.80;80.10
4960;DHT22;2495;48.200;11.532;2023-04-08T07:17:13;9.80;79.80
4960;DHT22;2495;48.200;11.532;2023-04-08T07:22:15;9.90;80.00
4960;DHT22;2495;48.200;11.532;2023-04-08T07:27:16;10.00;79.90
4960;DHT22;2495;48.200;11.532;2023-04-08T07:32:18;10.00;79.00
4960;DHT22;2495;48.200;11.532;2023-04-08T07:37:19;10.00;78.60
4960;DHT22;2495;48.200;11.532;2023-04-08T07:42:21;10.20;77.70
4960;DHT22;2495;48.200;11.532;2023-04-08T07:47:22;10.20;76.30
4960;DHT22;2495;48.200;11.532;2023-04-08T07:52:25;10.60;75.20
4960;DHT22;2495;48.200;11.532;2023-04-08T07:57:26;10.60;74.10
4960;DHT22;2495;48.200;11.532;2023-04-08T08:02:28;10.50;73.80
4960;DHT22;2495;48.200;11.532;2023-04-08T08:07:29;10.80;73.80
4960;DHT22;2495;48.200;11.532;2023-04-08T08:12:31;10.80;71.30
4960;DHT22;2495;48.200;11.532;2023-04-08T08:17:33;10.70;70.00
4960;DHT22;2495;48.200;11.532;2023-04-08T08:22:34;10.60;68.00
4960;DHT22;2495;48.200;11.532;2023-04-08T08:27:38;10.50;67.20
4960;DHT22;2495;48.200;11.532;2023-04-08T08:32:40;10.50;66.70
4960;DHT22;2495;48.200;11.532;2023-04-08T08:37:42;10.50;66.90
4960;DHT22;2495;48.200;11.532;2023-04-08T08:42:50;10.30;67.20
4960;DHT22;2495;48.200;11.532;2023-04-08T08:47:51;10.20;68.80
4960;DHT22;2495;48.200;11.532;2023-04-08T08:52:52;10.30;69.60
4960;DHT22;2495;48.200;11.532;2023-04-08T08:57:54;10.40;68.70
4960;DHT22;2495;48.200;11.532;2023-04-08T09:03:20;10.20;69.00
4960;DHT22;2495;48.200;11.532;2023-04-08T09:13:34;9.80;70.10
4960;DHT22;2495;48.200;11.532;2023-04-08T09:18:32;9.70;69.80
4960;DHT22;2495;48.200;11.532;2023-04-08T09:23:49;9.50;69.30
4960;DHT22;2495;48.200;11.532;2023-04-08T09:29:06;9.50;70.00
4960;DHT22;2495;48.200;11.532;2023-04-08T09:34:13;9.60;69.90
4960;DHT22;2495;48.200;11.532;2023-04-08T09:39:11;9.70;70.00
4960;DHT22;2495;48.200;11.532;2023-04-08T09:44:15;9.90;69.00
4960;DHT22;2495;48.200;11.532;2023-04-08T09:49:28;9.90;68.80
4960;DHT22;2495;48.200;11.532;2023-04-08T09:54:34;10.00;69.40
4960;DHT22;2495;48.200;11.532;2023-04-08T10:00:14;10.00;70.10
4960;DHT22;2495;48.200;11.532;2023-04-08T10:05:21;10.30;69.00
4960;DHT22;2495;48.200;11.532;2023-04-08T10:10:23;10.60;68.00
4960;DHT22;2495;48.200;11.532;2023-04-08T10:15:28;11.10;66.90
4960;DHT22;2495;48.200;11.532;2023-04-08T12:55:48;10.00;71.70
4960;DHT22;2495;48.200;11.532;2023-04-08T15:50:41;9.50;75.10
4960;DHT22;2495;48.200;11.532;2023-04-08T15:55:42;9.50;74.40
4960;DHT22;2495;48.200;11.532;2023-04-08T16:00:44;9.50;75.30
4960;DHT22;2495;48.200;11.532;2023-04-08T16:05:45;9.50;74.90
4960;DHT22;2495;48.200;11.532;2023-04-08T16:10:47;9.70;76.20
4960;DHT22;2495;48.200;11.532;2023-04-08T16:15:48;9.90;74.90
4960;DHT22;2495;48.200;11.532;2023-04-08T16:20:49;9.80;75.00
4960;DHT22;2495;48.200;11.532;2023-04-08T16:25:51;9.80;74.70
4960;DHT22;2495;48.200;11.532;2023-04-08T16:30:52;9.80;75.10
4960;DHT22;2495;48.200;11.532;2023-04-08T16:35:57;9.70;75.10
4960;DHT22;2495;48.200;11.532;2023-04-08T16:40:58;9.70;76.10
4960;DHT22;2495;48.200;11.532;2023-04-08T16:46:15;9.60;74.90
4960;DHT22;2495;48.200;11.532;2023-04-08T16:51:16;9.70;76.70
4960;DHT22;2495;48.200;11.532;2023-04-08T16:56:18;9.60;76.20
4960;DHT22;2495;48.200;11.532;2023-04-08T17:01:19;9.70;76.10
4960;DHT22;2495;48.200;11.532;2023-04-08T17:06:23;9.60;76.60
4960;DHT22;2495;48.200;11.532;2023-04-08T17:11:24;9.60;77.50
4960;DHT22;2495;48.200;11.532;2023-04-08T17:16:26;9.60;77.60
4960;DHT22;2495;48.200;11.532;2023-04-08T17:21:27;9.60;77.60
4960;DHT22;2495;48.200;11.532;2023-04-08T17:26:28;9.60;78.20
4960;DHT22;2495;48.200;11.532;2023-04-08T17:31:30;9.60;77.10
4960;DHT22;2495;48.200;11.532;2023-04-08T17:36:31;9.50;77.40
4960;DHT22;2495;48.200;11.532;2023-04-08T17:41:33;9.50;77.50
4960;DHT22;2495;48.200;11.532;2023-04-08T17:46:44;9.40;77.30
4960;DHT22;2495;48.200;11.532;2023-04-08T17:51:46;9.60;77.90
4960;DHT22;2495;48.200;11.532;2023-04-08T17:56:47;9.50;77.50
4960;DHT22;2495;48.200;11.532;2023-04-08T18:01:49;9.70;79.10
4960;DHT22;2495;48.200;11.532;2023-04-08T18:06:53;9.70;78.00
4960;DHT22;2495;48.200;11.532;2023-04-08T18:11:55;9.70;77.50
4960;DHT22;2495;48.200;11.532;2023-04-08T18:16:56;9.60;77.70
4960;DHT22;2495;48.200;11.532;2023-04-08T18:21:59;9.50;78.50
4960;DHT22;2495;48.200;11.532;2023-04-08T18:27:03;9.50;78.00
4960;DHT22;2495;48.200;11.532;2023-04-08T18:32:05;9.40;78.00
4960;DHT22;2495;48.200;11.532;2023-04-08T18:37:09;9.40;78.10
4960;DHT22;2495;48.200;11.532;2023-04-08T18:42:11;9.40;78.50
4960;DHT22;2495;48.200;11.532;2023-04-08T18:47:13;9.40;78.60
4960;DHT22;2495;48.200;11.532;2023-04-08T18:52:17;9.30;78.70
4960;DHT22;2495;48.200;11.532;2023-04-08T18:57:19;9.30;78.90
4960;DHT22;2495;48.200;11.532;2023-04-08T19:02:35;9.40;79.80
